sensor_id;sensor_type;location;lat;lon;timestamp;pressure;altitude;pressure_sealevel;temperature;humidity
967;BME280;56108;48.730;9.304;2023-06-24T00:01:44;98394.88;;;15.19;100.00
967;BME280;56108;48.730;9.304;2023-06-24T00:03:52;98398.44;;;15.19;100.00
967;BME280;56108;48.730;9.304;2023-06-24T00:06:01;98389.75;;;15.16;100.00
967;BME280;56108;48.730;9.304;2023-06-24T00:08:09;98392.03;;;15.09;100.00
967;BME280;56108;48.730;9.304;2023-06-24T00:10:20;98389.25;;;15.10;100.00
967;BME280;56108;48.730;9.304;2023-06-24T00:12:28;98392.25;;;15.06;100.00
967;BME280;56108;48.730;9.304;2023-06-24T00:14:37;98393.47;;;15.02;100.00
967;BME280;56108;48.730;9.304;2023-06-24T00:16:46;98390.78;;;15.02;100.00
967;BME280;56108;48.730;9.304;2023-06-24T00:18:56;98391.13;;;14.97;100.00
967;BME280;56108;48.730;9.304;2023-06-24T00:21:06;98385.16;;;14.94;100.00
967;BME280;56108;48.730;9.304;2023-06-24T00:23:17;98392.22;;;14.95;100.00
967;BME280;56108;48.730;9.304;2023-06-24T00:25:32;98389.41;;;14.96;100.00
967;BME280;56108;48.730;9.304;2023-06-24T00:27:41;98390.50;;;14.94;100.00
967;BME280;56108;48.730;9.304;2023-06-24T00:29:49;98391.13;;;14.97;100.00
967;BME280;56108;48.730;9.304;2023-06-24T00:31:58;98396.72;;;14.94;100.00
967;BME280;56108;48.730;9.304;2023-06-24T00:34:07;98397.41;;;14.85;100.00
967;BME280;56108;48.730;9.304;2023-06-24T00:36:15;98398.13;;;14.87;100.00
967;BME280;56108;48.730;9.304;2023-06-24T00:38:23;98400.28;;;14.82;100.00
967;BME280;56108;48.730;9.304;2023-06-24T00:42:42;98401.16;;;14.82;100.00
967;BME280;56108;48.730;9.304;2023-06-24T00:44:51;98395.41;;;14.76;100.00
967;BME280;56108;48.730;9.304;2023-06-24T00:47:00;98393.03;;;14.71;100.00
967;BME280;56108;48.730;9.304;2023-06-24T00:49:10;98394.78;;;14.72;100.00
967;BME280;56108;48.730;9.304;2023-06-24T00:51:21;98391.75;;;14.77;100.00
967;BME280;56108;48.730;9.304;2023-06-24T00:53:36;98393.22;;;14.81;100.00
967;BME280;56108;48.730;9.304;2023-06-24T00:55:47;98396.03;;;14.79;100.00
967;BME280;56108;48.730;9.304;2023-06-24T00:57:55;98398.84;;;14.78;100.00
967;BME280;56108;48.730;9.304;2023-06-24T01:00:07;98393.00;;;14.84;100.00
967;BME280;56108;48.730;9.304;2023-06-24T01:02:20;98399.97;;;14.86;100.00
967;BME280;56108;48.730;9.304;2023-06-24T01:04:33;98393.47;;;14.78;100.00
967;BME280;56108;48.730;9.304;2023-06-24T01:06:42;98392.72;;;14.76;100.00
967;BME280;56108;48.730;9.304;2023-06-24T01:08:50;98393.16;;;14.70;100.00
967;BME280;56108;48.730;9.304;2023-06-24T01:11:03;98395.50;;;14.74;100.00
967;BME280;56108;48.730;9.304;2023-06-24T01:13:12;98393.69;;;14.75;100.00
967;BME280;56108;48.730;9.304;2023-06-24T01:15:20;98389.31;;;14.74;100.00
967;BME280;56108;48.730;9.304;2023-06-24T01:17:32;98385.88;;;14.72;100.00
967;BME280;56108;48.730;9.304;2023-06-24T01:20:01;98385.97;;;14.70;100.00
967;BME280;56108;48.730;9.304;2023-06-24T01:22:23;98379.91;;;14.68;100.00
967;BME280;56108;48.730;9.304;2023-06-24T01:24:54;98384.28;;;14.69;100.00
967;BME280;56108;48.730;9.304;2023-06-24T01:30:08;98378.41;;;14.64;100.00
967;BME280;56108;48.730;9.304;2023-06-24T01:32:28;98377.88;;;14.59;100.00
967;BME280;56108;48.730;9.304;2023-06-24T01:34:43;98379.19;;;14.53;100.00
967;BME280;56108;48.730;9.304;2023-06-24T01:37:02;98383.28;;;14.46;100.00
967;BME280;56108;48.730;9.304;2023-06-24T01:39:16;98384.31;;;14.44;100.00
967;BME280;56108;48.730;9.304;2023-06-24T01:41:31;98380.91;;;14.42;100.00
967;BME280;56108;48.730;9.304;2023-06-24T01:43:42;98380.28;;;14.38;100.00
967;BME280;56108;48.730;9.304;2023-06-24T01:45:52;98374.16;;;14.49;100.00
967;BME280;56108;48.730;9.304;2023-06-24T01:48:09;98374.03;;;14.50;100.00
967;BME280;56108;48.730;9.304;2023-06-24T01:50:21;98372.75;;;14.43;100.00
967;BME280;56108;48.730;9.304;2023-06-24T01:52:32;98365.16;;;14.50;100.00
967;BME280;56108;48.730;9.304;2023-06-24T01:54:46;98366.44;;;14.44;100.00
967;BME280;56108;48.730;9.304;2023-06-24T01:56:57;98366.38;;;14.33;100.00
967;BME280;56108;48.730;9.304;2023-06-24T01:59:07;98360.34;;;14.42;100.00
967;BME280;56108;48.730;9.304;2023-06-24T02:01:17;98372.97;;;14.40;100.00
967;BME280;56108;48.730;9.304;2023-06-24T02:03:29;98373.81;;;14.41;100.00
967;BME280;56108;48.730;9.304;2023-06-24T02:05:39;98374.91;;;14.38;100.00
967;BME280;56108;48.730;9.304;2023-06-24T02:07:51;98369.69;;;14.36;100.00
967;BME280;56108;48.730;9.304;2023-06-24T02:10:02;98372.03;;;14.28;100.00
967;BME280;56108;48.730;9.304;2023-06-24T02:12:12;98375.28;;;14.21;100.00
967;BME280;56108;48.730;9.304;2023-06-24T02:14:20;98367.06;;;14.11;100.00
967;BME280;56108;48.730;9.304;2023-06-24T02:16:29;98371.66;;;14.09;100.00
967;BME280;56108;48.730;9.304;2023-06-24T02:18:40;98367.25;;;14.08;100.00
967;BME280;56108;48.730;9.304;2023-06-24T02:20:49;98363.00;;;14.05;100.00
967;BME280;56108;48.730;9.304;2023-06-24T02:22:59;98360.31;;;14.05;100.00
967;BME280;56108;48.730;9.304;2023-06-24T02:25:08;98351.78;;;14.00;100.00
967;BME280;56108;48.730;9.304;2023-06-24T02:27:17;98350.06;;;13.99;100.00
967;BME280;56108;48.730;9.304;2023-06-24T02:29:26;98354.53;;;13.99;100.00
967;BME280;56108;48.730;9.304;2023-06-24T02:31:35;98353.91;;;13.95;100.00
967;BME280;56108;48.730;9.304;2023-06-24T02:33:46;98352.75;;;13.87;100.00
967;BME280;56108;48.730;9.304;2023-06-24T02:35:56;98352.09;;;13.83;100.00
967;BME280;56108;48.730;9.304;2023-06-24T02:38:06;98356.91;;;13.78;100.00
967;BME280;56108;48.730;9.304;2023-06-24T02:40:14;98357.03;;;13.76;100.00
967;BME280;56108;48.730;9.304;2023-06-24T02:42:22;98352.84;;;13.72;100.00
967;BME280;56108;48.730;9.304;2023-06-24T02:44:32;98358.09;;;13.74;100.00
967;BME280;56108;48.730;9.304;2023-06-24T02:46:42;98346.75;;;13.70;100.00
967;BME280;56108;48.730;9.304;2023-06-24T02:48:54;98349.75;;;13.66;100.00
967;BME280;56108;48.730;9.304;2023-06-24T02:51:04;98351.03;;;13.60;100.00
967;BME280;56108;48.730;9.304;2023-06-24T02:53:13;98345.88;;;13.57;100.00
967;BME280;56108;48.730;9.304;2023-06-24T02:55:23;98345.81;;;13.58;100.00
967;BME280;56108;48.730;9.304;2023-06-24T02:57:38;98346.78;;;13.57;100.00
967;BME280;56108;48.730;9.304;2023-06-24T03:00:06;98350.06;;;13.61;100.00
967;BME280;56108;48.730;9.304;2023-06-24T03:02:41;98338.31;;;13.64;100.00
967;BME280;56108;48.730;9.304;2023-06-24T03:04:53;98348.25;;;13.74;100.00
967;BME280;56108;48.730;9.304;2023-06-24T03:07:02;98340.75;;;13.67;100.00
967;BME280;56108;48.730;9.304;2023-06-24T03:09:11;98342.69;;;13.65;100.00
967;BME280;56108;48.730;9.304;2023-06-24T03:11:20;98344.72;;;13.61;100.00
967;BME280;56108;48.730;9.304;2023-06-24T03:13:29;98342.47;;;13.55;100.00
967;BME280;56108;48.730;9.304;2023-06-24T03:15:44;98352.94;;;13.45;100.00
967;BME280;56108;48.730;9.304;2023-06-24T03:17:54;98354.66;;;13.46;100.00
967;BME280;56108;48.730;9.304;2023-06-24T03:20:07;98352.63;;;13.50;100.00
967;BME280;56108;48.730;9.304;2023-06-24T03:22:16;98361.50;;;13.50;100.00
967;BME280;56108;48.730;9.304;2023-06-24T03:24:28;98357.25;;;13.48;100.00
967;BME280;56108;48.730;9.304;2023-06-24T03:26:38;98368.03;;;13.46;100.00
967;BME280;56108;48.730;9.304;2023-06-24T03:28:49;98363.09;;;13.40;100.00
967;BME280;56108;48.730;9.304;2023-06-24T03:30:58;98365.47;;;13.32;100.00
967;BME280;56108;48.730;9.304;2023-06-24T03:33:08;98367.59;;;13.40;100.00
967;BME280;56108;48.730;9.304;2023-06-24T03:35:25;98375.13;;;13.47;100.00
967;BME280;56108;48.730;9.304;2023-06-24T03:37:38;98378.22;;;13.54;100.00
967;BME280;56108;48.730;9.304;2023-06-24T03:39:46;98386.34;;;13.65;100.00
967;BME280;56108;48.730;9.304;2023-06-24T03:41:55;98381.66;;;13.69;100.00
967;BME280;56108;48.730;9.304;2023-06-24T03:44:07;98391.91;;;13.75;100.00
967;BME280;56108;48.730;9.304;2023-06-24T03:46:31;98392.34;;;13.81;100.00
967;BME280;56108;48.730;9.304;2023-06-24T03:48:39;98392.22;;;13.83;100.00
967;BME280;56108;48.730;9.304;2023-06-24T03:50:52;98392.03;;;13.86;100.00
967;BME280;56108;48.730;9.304;2023-06-24T03:53:00;98401.22;;;13.95;100.00
967;BME280;56108;48.730;9.304;2023-06-24T03:55:09;98401.00;;;14.10;100.00
967;BME280;56108;48.730;9.304;2023-06-24T03:57:17;98412.25;;;14.16;100.00
967;BME280;56108;48.730;9.304;2023-06-24T03:59:26;98418.00;;;14.48;100.00
967;BME280;56108;48.730;9.304;2023-06-24T04:01:34;98419.91;;;14.58;100.00
967;BME280;56108;48.730;9.304;2023-06-24T04:03:42;98424.59;;;14.68;100.00
967;BME280;56108;48.730;9.304;2023-06-24T04:05:53;98435.09;;;14.95;100.00
967;BME280;56108;48.730;9.304;2023-06-24T04:08:02;98429.84;;;15.17;100.00
967;BME280;56108;48.730;9.304;2023-06-24T04:10:11;98435.88;;;15.56;100.00
967;BME280;56108;48.730;9.304;2023-06-24T04:12:21;98442.72;;;16.17;100.00
967;BME280;56108;48.730;9.304;2023-06-24T04:14:30;98451.81;;;17.16;100.00
967;BME280;56108;48.730;9.304;2023-06-24T04:16:38;98458.66;;;18.36;100.00
967;BME280;56108;48.730;9.304;2023-06-24T04:18:46;98461.50;;;18.95;91.55
967;BME280;56108;48.730;9.304;2023-06-24T04:20:57;98453.22;;;18.87;87.91
967;BME280;56108;48.730;9.304;2023-06-24T04:23:06;98466.94;;;19.34;84.74
967;BME280;56108;48.730;9.304;2023-06-24T04:25:16;98470.22;;;19.38;82.00
967;BME280;56108;48.730;9.304;2023-06-24T04:27:24;98462.38;;;19.06;82.56
967;BME280;56108;48.730;9.304;2023-06-24T04:29:32;98464.34;;;19.03;81.89
967;BME280;56108;48.730;9.304;2023-06-24T04:31:40;98468.09;;;19.32;81.77
967;BME280;56108;48.730;9.304;2023-06-24T04:33:49;98477.78;;;19.92;76.09
967;BME280;56108;48.730;9.304;2023-06-24T04:36:00;98473.09;;;19.85;75.36
967;BME280;56108;48.730;9.304;2023-06-24T04:38:09;98482.16;;;20.03;74.01
967;BME280;56108;48.730;9.304;2023-06-24T04:40:24;98482.84;;;20.15;73.92
967;BME280;56108;48.730;9.304;2023-06-24T04:42:32;98482.94;;;20.42;74.01
967;BME280;56108;48.730;9.304;2023-06-24T04:44:40;98488.16;;;20.73;70.73
967;BME280;56108;48.730;9.304;2023-06-24T04:46:49;98500.00;;;21.17;68.45
967;BME280;56108;48.730;9.304;2023-06-24T04:48:57;98484.09;;;20.40;71.61
967;BME280;56108;48.730;9.304;2023-06-24T04:51:08;98495.94;;;21.58;66.47
967;BME280;56108;48.730;9.304;2023-06-24T04:53:16;98503.25;;;22.02;62.75
967;BME280;56108;48.730;9.304;2023-06-24T04:55:25;98510.25;;;22.04;61.67
967;BME280;56108;48.730;9.304;2023-06-24T04:57:34;98514.63;;;22.93;58.83
967;BME280;56108;48.730;9.304;2023-06-24T04:59:42;98534.31;;;23.88;54.50
967;BME280;56108;48.730;9.304;2023-06-24T05:01:50;98540.16;;;25.14;50.79
967;BME280;56108;48.730;9.304;2023-06-24T05:03:59;98554.03;;;25.74;47.62
967;BME280;56108;48.730;9.304;2023-06-24T05:06:10;98546.38;;;25.39;48.90
967;BME280;56108;48.730;9.304;2023-06-24T05:08:18;98533.47;;;24.28;51.22
967;BME280;56108;48.730;9.304;2023-06-24T05:10:26;98531.41;;;24.63;50.52
967;BME280;56108;48.730;9.304;2023-06-24T05:12:34;98529.88;;;23.71;52.87
967;BME280;56108;48.730;9.304;2023-06-24T05:14:42;98520.19;;;23.26;56.20
967;BME280;56108;48.730;9.304;2023-06-24T05:16:50;98523.84;;;23.51;55.00
967;BME280;56108;48.730;9.304;2023-06-24T05:18:58;98517.28;;;23.19;55.65
967;BME280;56108;48.730;9.304;2023-06-24T05:21:09;98518.88;;;22.96;57.15
967;BME280;56108;48.730;9.304;2023-06-24T05:23:17;98512.97;;;22.74;57.51
967;BME280;56108;48.730;9.304;2023-06-24T05:25:25;98541.13;;;24.41;52.31
967;BME280;56108;48.730;9.304;2023-06-24T05:27:33;98549.50;;;25.19;49.05
967;BME280;56108;48.730;9.304;2023-06-24T05:29:41;98536.50;;;24.74;50.36
967;BME280;56108;48.730;9.304;2023-06-24T05:31:49;98552.09;;;25.83;47.75
967;BME280;56108;48.730;9.304;2023-06-24T05:33:57;98548.41;;;25.37;48.05
967;BME280;56108;48.730;9.304;2023-06-24T05:36:05;98554.56;;;26.47;46.15
967;BME280;56108;48.730;9.304;2023-06-24T05:38:16;98553.53;;;26.48;46.11
967;BME280;56108;48.730;9.304;2023-06-24T05:40:24;98564.91;;;27.48;43.21
967;BME280;56108;48.730;9.304;2023-06-24T05:42:32;98564.75;;;26.53;44.63
967;BME280;56108;48.730;9.304;2023-06-24T05:44:40;98554.88;;;26.67;45.33
967;BME280;56108;48.730;9.304;2023-06-24T05:46:48;98555.31;;;25.16;47.51
967;BME280;56108;48.730;9.304;2023-06-24T05:48:56;98556.69;;;25.51;47.74
967;BME280;56108;48.730;9.304;2023-06-24T05:51:05;98564.28;;;27.31;44.12
967;BME280;56108;48.730;9.304;2023-06-24T05:53:16;98568.34;;;27.36;43.07
967;BME280;56108;48.730;9.304;2023-06-24T05:55:24;98573.94;;;27.78;42.27
967;BME280;56108;48.730;9.304;2023-06-24T05:57:32;98592.06;;;28.58;40.02
967;BME280;56108;48.730;9.304;2023-06-24T05:59:40;98573.47;;;27.01;43.58
967;BME280;56108;48.730;9.304;2023-06-24T06:01:48;98584.25;;;28.83;40.50
967;BME280;56108;48.730;9.304;2023-06-24T06:03:57;98587.44;;;27.80;41.22
967;BME280;56108;48.730;9.304;2023-06-24T06:06:05;98573.44;;;26.71;43.58
967;BME280;56108;48.730;9.304;2023-06-24T06:08:15;98572.63;;;27.00;43.32
967;BME280;56108;48.730;9.304;2023-06-24T06:10:23;98587.13;;;29.25;39.64
967;BME280;56108;48.730;9.304;2023-06-24T06:12:32;98604.34;;;31.02;36.13
967;BME280;56108;48.730;9.304;2023-06-24T06:14:40;98602.41;;;30.63;35.67
967;BME280;56108;48.730;9.304;2023-06-24T06:16:51;98606.66;;;31.12;35.09
967;BME280;56108;48.730;9.304;2023-06-24T06:18:59;98603.72;;;30.80;35.15
967;BME280;56108;48.730;9.304;2023-06-24T06:21:07;98604.94;;;32.02;32.12
967;BME280;56108;48.730;9.304;2023-06-24T06:23:18;98607.47;;;32.42;31.39
967;BME280;56108;48.730;9.304;2023-06-24T06:25:26;98599.13;;;32.55;31.00
967;BME280;56108;48.730;9.304;2023-06-24T06:27:34;98593.66;;;32.10;31.32
967;BME280;56108;48.730;9.304;2023-06-24T06:29:42;98598.63;;;32.65;30.75
967;BME280;56108;48.730;9.304;2023-06-24T06:31:49;98593.19;;;32.52;31.03
967;BME280;56108;48.730;9.304;2023-06-24T06:34:00;98608.19;;;32.62;30.23
967;BME280;56108;48.730;9.304;2023-06-24T06:36:08;98601.25;;;33.53;29.80
967;BME280;56108;48.730;9.304;2023-06-24T06:38:18;98597.09;;;33.99;29.01
967;BME280;56108;48.730;9.304;2023-06-24T06:40:26;98600.47;;;34.31;27.86
967;BME280;56108;48.730;9.304;2023-06-24T06:42:35;98566.13;;;33.60;28.45
967;BME280;56108;48.730;9.304;2023-06-24T06:44:43;98558.50;;;32.94;30.03
967;BME280;56108;48.730;9.304;2023-06-24T06:46:51;98556.31;;;33.03;29.91
967;BME280;56108;48.730;9.304;2023-06-24T06:48:59;98550.00;;;33.94;29.24
967;BME280;56108;48.730;9.304;2023-06-24T06:51:07;98523.16;;;34.55;27.49
967;BME280;56108;48.730;9.304;2023-06-24T06:53:18;98529.31;;;34.80;28.25
967;BME280;56108;48.730;9.304;2023-06-24T06:55:26;98528.22;;;34.69;27.25
967;BME280;56108;48.730;9.304;2023-06-24T06:57:34;98536.84;;;34.19;28.06
967;BME280;56108;48.730;9.304;2023-06-24T06:59:42;98518.75;;;32.58;28.65
967;BME280;56108;48.730;9.304;2023-06-24T07:01:50;98516.63;;;32.29;29.96
967;BME280;56108;48.730;9.304;2023-06-24T07:03:58;98512.72;;;32.93;29.13
967;BME280;56108;48.730;9.304;2023-06-24T07:06:06;98517.78;;;33.14;29.83
967;BME280;56108;48.730;9.304;2023-06-24T07:08:19;98520.66;;;34.35;28.87
967;BME280;56108;48.730;9.304;2023-06-24T07:10:27;98524.00;;;34.90;27.78
967;BME280;56108;48.730;9.304;2023-06-24T07:12:35;98526.66;;;35.32;26.30
967;BME280;56108;48.730;9.304;2023-06-24T07:14:43;98504.78;;;35.07;26.99
967;BME280;56108;48.730;9.304;2023-06-24T07:16:51;98506.84;;;34.23;27.47
967;BME280;56108;48.730;9.304;2023-06-24T07:18:59;98513.34;;;35.06;27.27
967;BME280;56108;48.730;9.304;2023-06-24T07:21:07;98511.69;;;34.39;27.74
967;BME280;56108;48.730;9.304;2023-06-24T07:23:15;98511.78;;;34.21;27.75
967;BME280;56108;48.730;9.304;2023-06-24T07:25:26;98516.31;;;34.92;25.96
967;BME280;56108;48.730;9.304;2023-06-24T07:27:34;98507.25;;;35.55;25.58
967;BME280;56108;48.730;9.304;2023-06-24T07:29:43;98508.34;;;35.43;26.39
967;BME280;56108;48.730;9.304;2023-06-24T07:31:51;98509.09;;;34.79;27.82
967;BME280;56108;48.730;9.304;2023-06-24T07:33:59;98510.03;;;35.32;26.66
967;BME280;56108;48.730;9.304;2023-06-24T07:36:08;98513.91;;;36.12;26.11
967;BME280;56108;48.730;9.304;2023-06-24T07:38:18;98505.41;;;33.90;27.31
967;BME280;56108;48.730;9.304;2023-06-24T07:40:29;98500.91;;;31.66;29.35
967;BME280;56108;48.730;9.304;2023-06-24T07:42:37;98510.00;;;34.38;27.84
967;BME280;56108;48.730;9.304;2023-06-24T07:44:45;98507.50;;;35.94;24.73
967;BME280;56108;48.730;9.304;2023-06-24T07:46:53;98504.91;;;33.08;27.39
967;BME280;56108;48.730;9.304;2023-06-24T07:49:02;98510.78;;;34.92;26.36
967;BME280;56108;48.730;9.304;2023-06-24T07:51:10;98502.38;;;33.92;25.95
967;BME280;56108;48.730;9.304;2023-06-24T07:53:18;98512.13;;;36.05;24.59
967;BME280;56108;48.730;9.304;2023-06-24T07:55:29;98495.44;;;36.17;24.41
967;BME280;56108;48.730;9.304;2023-06-24T07:57:38;98500.28;;;36.89;23.18
967;BME280;56108;48.730;9.304;2023-06-24T07:59:46;98503.88;;;36.90;23.64
967;BME280;56108;48.730;9.304;2023-06-24T08:01:56;98506.25;;;37.37;22.07
967;BME280;56108;48.730;9.304;2023-06-24T08:04:04;98498.38;;;35.18;24.16
967;BME280;56108;48.730;9.304;2023-06-24T08:06:12;98494.53;;;34.49;25.78
967;BME280;56108;48.730;9.304;2023-06-24T08:08:20;98494.91;;;33.99;27.02
967;BME280;56108;48.730;9.304;2023-06-24T08:10:31;98500.84;;;35.67;24.22
967;BME280;56108;48.730;9.304;2023-06-24T08:12:40;98494.03;;;35.74;24.61
967;BME280;56108;48.730;9.304;2023-06-24T08:14:48;98487.44;;;33.33;26.33
967;BME280;56108;48.730;9.304;2023-06-24T08:16:56;98488.03;;;31.60;29.24
967;BME280;56108;48.730;9.304;2023-06-24T08:19:04;98479.31;;;32.33;28.50
967;BME280;56108;48.730;9.304;2023-06-24T08:21:12;98479.38;;;32.51;28.08
967;BME280;56108;48.730;9.304;2023-06-24T08:23:20;98481.47;;;33.54;27.43
967;BME280;56108;48.730;9.304;2023-06-24T08:25:38;98486.50;;;34.59;25.62
967;BME280;56108;48.730;9.304;2023-06-24T08:27:46;98482.53;;;34.55;26.01
967;BME280;56108;48.730;9.304;2023-06-24T08:29:55;98481.94;;;33.51;26.54
967;BME280;56108;48.730;9.304;2023-06-24T08:32:03;98477.22;;;31.58;29.08
967;BME280;56108;48.730;9.304;2023-06-24T08:34:12;98474.88;;;31.04;30.04
967;BME280;56108;48.730;9.304;2023-06-24T08:36:21;98467.75;;;30.83;31.20
967;BME280;56108;48.730;9.304;2023-06-24T08:38:31;98463.63;;;28.98;32.74
967;BME280;56108;48.730;9.304;2023-06-24T08:40:41;98452.66;;;28.98;33.36
967;BME280;56108;48.730;9.304;2023-06-24T08:42:50;98458.78;;;31.27;31.30
967;BME280;56108;48.730;9.304;2023-06-24T08:44:59;98463.34;;;31.85;29.78
967;BME280;56108;48.730;9.304;2023-06-24T08:47:07;98463.78;;;31.37;29.72
967;BME280;56108;48.730;9.304;2023-06-24T08:49:22;98462.28;;;30.76;31.23
967;BME280;56108;48.730;9.304;2023-06-24T08:51:37;98454.22;;;29.88;31.83
967;BME280;56108;48.730;9.304;2023-06-24T08:53:48;98458.38;;;29.64;32.88
967;BME280;56108;48.730;9.304;2023-06-24T08:55:59;98444.34;;;30.34;33.49
967;BME280;56108;48.730;9.304;2023-06-24T08:58:07;98441.84;;;31.10;32.20
967;BME280;56108;48.730;9.304;2023-06-24T09:00:16;98450.78;;;31.95;29.84
967;BME280;56108;48.730;9.304;2023-06-24T09:02:24;98449.69;;;31.13;31.44
967;BME280;56108;48.730;9.304;2023-06-24T09:04:33;98456.38;;;32.39;28.65
967;BME280;56108;48.730;9.304;2023-06-24T09:06:41;98466.59;;;32.07;28.25
967;BME280;56108;48.730;9.304;2023-06-24T09:08:53;98454.50;;;31.25;29.60
967;BME280;56108;48.730;9.304;2023-06-24T09:11:04;98457.63;;;30.37;30.13
967;BME280;56108;48.730;9.304;2023-06-24T09:13:12;98467.13;;;31.90;29.41
967;BME280;56108;48.730;9.304;2023-06-24T09:15:21;98463.53;;;33.93;26.70
967;BME280;56108;48.730;9.304;2023-06-24T09:17:29;98459.78;;;33.58;27.15
967;BME280;56108;48.730;9.304;2023-06-24T09:19:37;98461.41;;;34.07;25.12
967;BME280;56108;48.730;9.304;2023-06-24T09:21:46;98453.00;;;34.14;26.51
967;BME280;56108;48.730;9.304;2023-06-24T09:23:55;98458.59;;;35.60;24.92
967;BME280;56108;48.730;9.304;2023-06-24T09:26:10;98452.31;;;33.88;25.15
967;BME280;56108;48.730;9.304;2023-06-24T09:28:18;98447.13;;;33.50;26.25
967;BME280;56108;48.730;9.304;2023-06-24T09:30:27;98438.81;;;30.74;28.67
967;BME280;56108;48.730;9.304;2023-06-24T09:32:35;98436.06;;;32.58;27.93
967;BME280;56108;48.730;9.304;2023-06-24T09:34:43;98444.50;;;32.13;26.70
967;BME280;56108;48.730;9.304;2023-06-24T09:36:53;98436.69;;;32.60;26.53
967;BME280;56108;48.730;9.304;2023-06-24T09:39:05;98435.66;;;30.10;29.16
967;BME280;56108;48.730;9.304;2023-06-24T09:41:35;98433.97;;;30.09;28.77
967;BME280;56108;48.730;9.304;2023-06-24T09:43:44;98428.28;;;29.98;29.57
967;BME280;56108;48.730;9.304;2023-06-24T09:45:52;98428.31;;;31.60;28.79
967;BME280;56108;48.730;9.304;2023-06-24T09:48:00;98425.75;;;29.28;30.39
967;BME280;56108;48.730;9.304;2023-06-24T09:50:09;98423.91;;;29.42;31.22
967;BME280;56108;48.730;9.304;2023-06-24T09:52:18;98425.47;;;32.37;27.49
967;BME280;56108;48.730;9.304;2023-06-24T09:54:28;98430.03;;;34.01;26.19
967;BME280;56108;48.730;9.304;2023-06-24T09:56:43;98424.66;;;34.18;25.10
967;BME280;56108;48.730;9.304;2023-06-24T09:58:51;98420.84;;;34.31;25.00
967;BME280;56108;48.730;9.304;2023-06-24T10:01:02;98416.84;;;33.73;25.55
967;BME280;56108;48.730;9.304;2023-06-24T10:03:11;98406.69;;;33.86;24.58
967;BME280;56108;48.730;9.304;2023-06-24T10:05:20;98413.06;;;33.56;25.00
967;BME280;56108;48.730;9.304;2023-06-24T10:07:29;98407.78;;;32.19;26.72
967;BME280;56108;48.730;9.304;2023-06-24T10:09:38;98400.69;;;32.55;26.96
967;BME280;56108;48.730;9.304;2023-06-24T10:11:49;98400.13;;;31.27;28.17
967;BME280;56108;48.730;9.304;2023-06-24T10:13:57;98401.25;;;31.12;27.27
967;BME280;56108;48.730;9.304;2023-06-24T10:16:06;98387.72;;;29.93;29.95
967;BME280;56108;48.730;9.304;2023-06-24T10:18:32;98394.88;;;29.81;30.36
967;BME280;56108;48.730;9.304;2023-06-24T10:20:40;98377.38;;;30.08;31.40
967;BME280;56108;48.730;9.304;2023-06-24T10:22:50;98384.97;;;32.12;27.89
967;BME280;56108;48.730;9.304;2023-06-24T10:25:00;98389.34;;;31.25;27.95
967;BME280;56108;48.730;9.304;2023-06-24T10:27:16;98380.97;;;29.82;29.58
967;BME280;56108;48.730;9.304;2023-06-24T10:29:34;98381.88;;;29.15;30.10
967;BME280;56108;48.730;9.304;2023-06-24T10:31:52;98374.19;;;28.28;31.75
967;BME280;56108;48.730;9.304;2023-06-24T10:34:01;98368.31;;;28.94;31.03
967;BME280;56108;48.730;9.304;2023-06-24T10:36:31;98371.84;;;30.41;29.15
967;BME280;56108;48.730;9.304;2023-06-24T10:38:39;98366.75;;;31.55;28.43
967;BME280;56108;48.730;9.304;2023-06-24T10:40:49;98375.41;;;32.40;27.01
967;BME280;56108;48.730;9.304;2023-06-24T10:43:00;98368.16;;;29.22;29.87
967;BME280;56108;48.730;9.304;2023-06-24T10:45:18;98353.31;;;27.92;33.13
967;BME280;56108;48.730;9.304;2023-06-24T10:47:27;98367.41;;;27.68;33.02
967;BME280;56108;48.730;9.304;2023-06-24T10:49:36;98357.25;;;27.04;33.40
967;BME280;56108;48.730;9.304;2023-06-24T10:51:44;98354.25;;;29.17;31.73
967;BME280;56108;48.730;9.304;2023-06-24T10:53:52;98341.91;;;30.00;30.38
967;BME280;56108;48.730;9.304;2023-06-24T10:56:01;98348.22;;;30.99;29.97
967;BME280;56108;48.730;9.304;2023-06-24T10:58:13;98346.09;;;31.01;28.00
967;BME280;56108;48.730;9.304;2023-06-24T11:00:21;98337.31;;;31.87;29.63
967;BME280;56108;48.730;9.304;2023-06-24T11:02:30;98338.94;;;30.93;28.42
967;BME280;56108;48.730;9.304;2023-06-24T11:04:44;98333.03;;;29.65;29.13
967;BME280;56108;48.730;9.304;2023-06-24T11:06:57;98336.25;;;28.53;31.58
967;BME280;56108;48.730;9.304;2023-06-24T11:09:06;98321.31;;;27.93;32.93
967;BME280;56108;48.730;9.304;2023-06-24T11:11:20;98327.84;;;27.42;33.39
967;BME280;56108;48.730;9.304;2023-06-24T11:13:33;98324.66;;;27.02;33.85
967;BME280;56108;48.730;9.304;2023-06-24T11:15:41;98320.50;;;27.06;33.93
967;BME280;56108;48.730;9.304;2023-06-24T11:17:51;98320.25;;;27.66;32.98
967;BME280;56108;48.730;9.304;2023-06-24T11:19:59;98313.63;;;26.74;33.58
967;BME280;56108;48.730;9.304;2023-06-24T11:22:08;98318.34;;;27.02;32.24
967;BME280;56108;48.730;9.304;2023-06-24T11:24:17;98315.81;;;27.00;32.43
967;BME280;56108;48.730;9.304;2023-06-24T11:26:27;98311.78;;;26.16;33.98
967;BME280;56108;48.730;9.304;2023-06-24T11:28:37;98299.00;;;26.82;33.89
967;BME280;56108;48.730;9.304;2023-06-24T11:30:47;98308.97;;;26.90;34.58
967;BME280;56108;48.730;9.304;2023-06-24T11:32:55;98303.03;;;27.22;34.08
967;BME280;56108;48.730;9.304;2023-06-24T11:35:05;98289.09;;;26.45;34.53
967;BME280;56108;48.730;9.304;2023-06-24T11:37:17;98298.78;;;26.03;34.67
967;BME280;56108;48.730;9.304;2023-06-24T11:39:27;98296.91;;;26.03;34.58
967;BME280;56108;48.730;9.304;2023-06-24T11:41:37;98294.53;;;26.60;35.28
967;BME280;56108;48.730;9.304;2023-06-24T11:43:47;98294.88;;;27.50;33.76
967;BME280;56108;48.730;9.304;2023-06-24T11:45:56;98288.91;;;27.40;30.96
967;BME280;56108;48.730;9.304;2023-06-24T11:48:05;98284.16;;;27.49;29.79
967;BME280;56108;48.730;9.304;2023-06-24T11:50:13;98281.47;;;28.12;32.97